sensor_id;sensor_type;location;lat;lon;timestamp;P1;durP1;ratioP1;P2;durP2;ratioP2
28070;SDS011;15383;48.408;9.968;2024-03-02T00:00:51;22.70;;;10.35;;
28070;SDS011;15383;48.408;9.968;2024-03-02T00:03:17;17.75;;;9.80;;
28070;SDS011;15383;48.408;9.968;2024-03-02T00:05:43;23.75;;;10.20;;
28070;SDS011;15383;48.408;9.968;2024-03-02T00:08:13;21.40;;;9.88;;
28070;SDS011;15383;48.408;9.968;2024-03-02T00:10:47;19.40;;;9.63;;
28070;SDS011;15383;48.408;9.968;2024-03-02T00:13:13;19.90;;;9.75;;
28070;SDS011;15383;48.408;9.968;2024-03-02T00:15:45;19.35;;;10.23;;
28070;SDS011;15383;48.408;9.968;2024-03-02T00:18:13;19.73;;;10.25;;
28070;SDS011;15383;48.408;9.968;2024-03-02T00:20:41;19.20;;;9.45;;
28070;SDS011;15383;48.408;9.968;2024-03-02T00:23:07;15.45;;;8.80;;
28070;SDS011;15383;48.408;9.968;2024-03-02T00:25:42;20.10;;;9.95;;
28070;SDS011;15383;48.408;9.968;2024-03-02T00:28:16;18.88;;;8.98;;
28070;SDS011;15383;48.408;9.968;2024-03-02T00:31:01;17.60;;;9.27;;
28070;SDS011;15383;48.408;9.968;2024-03-02T00:33:34;21.85;;;10.23;;
28070;SDS011;15383;48.408;9.968;2024-03-02T00:36:04;16.52;;;8.18;;
28070;SDS011;15383;48.408;9.968;2024-03-02T00:38:31;17.65;;;9.43;;
28070;SDS011;15383;48.408;9.968;2024-03-02T00:41:03;15.45;;;8.15;;
28070;SDS011;15383;48.408;9.968;2024-03-02T00:43:41;16.42;;;8.85;;
28070;SDS011;15383;48.408;9.968;2024-03-02T00:46:18;16.17;;;8.73;;
28070;SDS011;15383;48.408;9.968;2024-03-02T00:48:48;16.33;;;8.95;;
28070;SDS011;15383;48.408;9.968;2024-03-02T00:51:20;17.58;;;9.68;;
28070;SDS011;15383;48.408;9.968;2024-03-02T00:53:48;19.38;;;10.10;;
28070;SDS011;15383;48.408;9.968;2024-03-02T00:56:13;15.93;;;8.88;;
28070;SDS011;15383;48.408;9.968;2024-03-02T00:58:40;18.00;;;9.38;;
28070;SDS011;15383;48.408;9.968;2024-03-02T01:01:05;17.05;;;9.55;;
28070;SDS011;15383;48.408;9.968;2024-03-02T01:03:32;17.85;;;9.40;;
28070;SDS011;15383;48.408;9.968;2024-03-02T01:05:58;18.33;;;9.27;;
28070;SDS011;15383;48.408;9.968;2024-03-02T01:08:24;18.65;;;9.70;;
28070;SDS011;15383;48.408;9.968;2024-03-02T01:10:51;18.83;;;9.75;;
28070;SDS011;15383;48.408;9.968;2024-03-02T01:13:16;22.23;;;9.10;;
28070;SDS011;15383;48.408;9.968;2024-03-02T01:15:42;19.77;;;10.18;;
28070;SDS011;15383;48.408;9.968;2024-03-02T01:18:07;17.38;;;9.05;;
28070;SDS011;15383;48.408;9.968;2024-03-02T01:20:33;17.15;;;10.00;;
28070;SDS011;15383;48.408;9.968;2024-03-02T01:22:59;16.75;;;9.07;;
28070;SDS011;15383;48.408;9.968;2024-03-02T01:25:24;21.27;;;10.10;;
28070;SDS011;15383;48.408;9.968;2024-03-02T01:27:50;18.08;;;9.95;;
28070;SDS011;15383;48.408;9.968;2024-03-02T01:30:16;18.60;;;9.75;;
28070;SDS011;15383;48.408;9.968;2024-03-02T01:32:41;18.40;;;9.45;;
28070;SDS011;15383;48.408;9.968;2024-03-02T01:35:07;15.38;;;8.40;;
28070;SDS011;15383;48.408;9.968;2024-03-02T01:37:33;16.80;;;8.90;;
28070;SDS011;15383;48.408;9.968;2024-03-02T01:39:58;16.40;;;8.40;;
28070;SDS011;15383;48.408;9.968;2024-03-02T01:42:24;14.80;;;8.77;;
28070;SDS011;15383;48.408;9.968;2024-03-02T01:44:50;17.45;;;8.43;;
28070;SDS011;15383;48.408;9.968;2024-03-02T01:47:16;19.08;;;9.07;;
28070;SDS011;15383;48.408;9.968;2024-03-02T01:49:41;17.75;;;9.02;;
28070;SDS011;15383;48.408;9.968;2024-03-02T01:52:07;20.98;;;8.40;;
28070;SDS011;15383;48.408;9.968;2024-03-02T01:54:33;16.95;;;9.02;;
28070;SDS011;15383;48.408;9.968;2024-03-02T01:56:59;16.33;;;7.93;;
28070;SDS011;15383;48.408;9.968;2024-03-02T01:59:25;19.70;;;8.68;;
28070;SDS011;15383;48.408;9.968;2024-03-02T02:01:51;17.50;;;8.27;;
28070;SDS011;15383;48.408;9.968;2024-03-02T02:04:16;14.75;;;8.70;;
28070;SDS011;15383;48.408;9.968;2024-03-02T02:06:43;17.58;;;8.48;;
28070;SDS011;15383;48.408;9.968;2024-03-02T02:09:09;15.00;;;8.00;;
28070;SDS011;15383;48.408;9.968;2024-03-02T02:11:35;15.25;;;7.80;;
28070;SDS011;15383;48.408;9.968;2024-03-02T02:14:01;15.15;;;7.95;;
28070;SDS011;15383;48.408;9.968;2024-03-02T02:16:26;16.27;;;8.52;;
28070;SDS011;15383;48.408;9.968;2024-03-02T02:18:52;14.65;;;8.85;;
28070;SDS011;15383;48.408;9.968;2024-03-02T02:21:17;16.33;;;8.40;;
28070;SDS011;15383;48.408;9.968;2024-03-02T02:23:47;14.73;;;8.45;;
28070;SDS011;15383;48.408;9.968;2024-03-02T02:26:13;21.98;;;9.07;;
28070;SDS011;15383;48.408;9.968;2024-03-02T02:28:39;15.60;;;8.38;;
28070;SDS011;15383;48.408;9.968;2024-03-02T02:31:11;19.98;;;9.35;;
28070;SDS011;15383;48.408;9.968;2024-03-02T02:33:40;19.13;;;9.50;;
28070;SDS011;15383;48.408;9.968;2024-03-02T02:36:06;13.23;;;8.32;;
28070;SDS011;15383;48.408;9.968;2024-03-02T02:38:35;15.38;;;8.38;;
28070;SDS011;15383;48.408;9.968;2024-03-02T02:41:03;14.95;;;8.05;;
28070;SDS011;15383;48.408;9.968;2024-03-02T02:43:29;16.98;;;9.30;;
28070;SDS011;15383;48.408;9.968;2024-03-02T02:45:54;18.17;;;9.50;;
28070;SDS011;15383;48.408;9.968;2024-03-02T02:48:20;16.80;;;9.05;;
28070;SDS011;15383;48.408;9.968;2024-03-02T02:50:45;18.38;;;8.65;;
28070;SDS011;15383;48.408;9.968;2024-03-02T02:53:11;17.70;;;9.23;;
28070;SDS011;15383;48.408;9.968;2024-03-02T02:55:37;17.60;;;8.50;;
28070;SDS011;15383;48.408;9.968;2024-03-02T02:58:05;19.52;;;9.25;;
28070;SDS011;15383;48.408;9.968;2024-03-02T03:00:31;22.05;;;9.18;;
28070;SDS011;15383;48.408;9.968;2024-03-02T03:02:57;20.27;;;9.52;;
28070;SDS011;15383;48.408;9.968;2024-03-02T03:05:22;20.85;;;9.98;;
28070;SDS011;15383;48.408;9.968;2024-03-02T03:07:48;20.65;;;9.73;;
28070;SDS011;15383;48.408;9.968;2024-03-02T03:10:15;22.75;;;10.68;;
28070;SDS011;15383;48.408;9.968;2024-03-02T03:12:41;22.20;;;10.15;;
28070;SDS011;15383;48.408;9.968;2024-03-02T03:15:08;22.15;;;10.32;;
28070;SDS011;15383;48.408;9.968;2024-03-02T03:17:34;21.38;;;10.10;;
28070;SDS011;15383;48.408;9.968;2024-03-02T03:20:00;24.70;;;10.98;;
28070;SDS011;15383;48.408;9.968;2024-03-02T03:22:27;19.40;;;10.07;;
28070;SDS011;15383;48.408;9.968;2024-03-02T03:24:53;27.35;;;10.88;;
28070;SDS011;15383;48.408;9.968;2024-03-02T03:27:18;21.73;;;10.32;;
28070;SDS011;15383;48.408;9.968;2024-03-02T03:29:47;22.52;;;10.40;;
28070;SDS011;15383;48.408;9.968;2024-03-02T03:32:12;21.10;;;9.95;;
28070;SDS011;15383;48.408;9.968;2024-03-02T03:34:38;21.35;;;10.77;;
28070;SDS011;15383;48.408;9.968;2024-03-02T03:37:04;21.27;;;10.65;;
28070;SDS011;15383;48.408;9.968;2024-03-02T03:39:30;25.67;;;12.18;;
28070;SDS011;15383;48.408;9.968;2024-03-02T03:41:55;25.33;;;10.93;;
28070;SDS011;15383;48.408;9.968;2024-03-02T03:44:21;19.83;;;10.23;;
28070;SDS011;15383;48.408;9.968;2024-03-02T03:46:46;18.90;;;10.90;;
28070;SDS011;15383;48.408;9.968;2024-03-02T03:49:12;19.35;;;10.25;;
28070;SDS011;15383;48.408;9.968;2024-03-02T03:51:37;21.58;;;11.02;;
28070;SDS011;15383;48.408;9.968;2024-03-02T03:54:03;22.58;;;11.40;;
28070;SDS011;15383;48.408;9.968;2024-03-02T03:56:28;23.98;;;11.60;;
28070;SDS011;15383;48.408;9.968;2024-03-02T03:58:54;22.40;;;10.43;;
28070;SDS011;15383;48.408;9.968;2024-03-02T04:01:19;20.25;;;10.85;;
28070;SDS011;15383;48.408;9.968;2024-03-02T04:03:47;21.65;;;10.32;;
28070;SDS011;15383;48.408;9.968;2024-03-02T04:06:13;20.27;;;10.30;;
28070;SDS011;15383;48.408;9.968;2024-03-02T04:08:39;24.02;;;12.13;;
28070;SDS011;15383;48.408;9.968;2024-03-02T04:11:06;21.10;;;10.23;;
28070;SDS011;15383;48.408;9.968;2024-03-02T04:13:32;21.27;;;10.88;;
28070;SDS011;15383;48.408;9.968;2024-03-02T04:15:58;18.65;;;10.55;;
28070;SDS011;15383;48.408;9.968;2024-03-02T04:18:23;19.40;;;9.93;;
28070;SDS011;15383;48.408;9.968;2024-03-02T04:20:49;20.73;;;10.68;;
28070;SDS011;15383;48.408;9.968;2024-03-02T04:23:14;19.85;;;10.13;;
28070;SDS011;15383;48.408;9.968;2024-03-02T04:25:40;19.67;;;10.32;;
28070;SDS011;15383;48.408;9.968;2024-03-02T04:28:05;23.00;;;11.10;;
28070;SDS011;15383;48.408;9.968;2024-03-02T04:30:31;22.20;;;10.38;;
28070;SDS011;15383;48.408;9.968;2024-03-02T04:32:57;21.02;;;10.45;;
28070;SDS011;15383;48.408;9.968;2024-03-02T04:35:22;22.83;;;10.95;;
28070;SDS011;15383;48.408;9.968;2024-03-02T04:37:48;20.13;;;9.95;;
28070;SDS011;15383;48.408;9.968;2024-03-02T04:40:14;23.33;;;11.13;;
28070;SDS011;15383;48.408;9.968;2024-03-02T04:42:39;20.67;;;10.77;;
28070;SDS011;15383;48.408;9.968;2024-03-02T04:45:05;19.67;;;10.48;;
28070;SDS011;15383;48.408;9.968;2024-03-02T04:47:32;21.92;;;11.38;;
28070;SDS011;15383;48.408;9.968;2024-03-02T04:49:57;19.10;;;10.57;;
28070;SDS011;15383;48.408;9.968;2024-03-02T04:52:23;23.27;;;11.07;;
28070;SDS011;15383;48.408;9.968;2024-03-02T04:54:48;18.67;;;10.13;;
28070;SDS011;15383;48.408;9.968;2024-03-02T04:57:43;20.52;;;10.77;;
28070;SDS011;15383;48.408;9.968;2024-03-02T05:00:09;23.73;;;11.13;;
28070;SDS011;15383;48.408;9.968;2024-03-02T05:02:35;28.05;;;11.65;;
28070;SDS011;15383;48.408;9.968;2024-03-02T05:05:01;19.35;;;10.02;;
28070;SDS011;15383;48.408;9.968;2024-03-02T05:07:27;20.58;;;10.82;;
28070;SDS011;15383;48.408;9.968;2024-03-02T05:09:53;19.55;;;11.13;;
28070;SDS011;15383;48.408;9.968;2024-03-02T05:12:18;21.48;;;11.80;;
28070;SDS011;15383;48.408;9.968;2024-03-02T05:15:02;22.27;;;11.52;;
28070;SDS011;15383;48.408;9.968;2024-03-02T05:17:28;19.35;;;9.65;;
28070;SDS011;15383;48.408;9.968;2024-03-02T05:19:54;21.90;;;10.45;;
28070;SDS011;15383;48.408;9.968;2024-03-02T05:22:19;24.85;;;11.40;;
28070;SDS011;15383;48.408;9.968;2024-03-02T05:24:45;20.15;;;10.43;;
28070;SDS011;15383;48.408;9.968;2024-03-02T05:27:10;23.27;;;11.63;;
28070;SDS011;15383;48.408;9.968;2024-03-02T05:29:36;19.00;;;10.85;;
28070;SDS011;15383;48.408;9.968;2024-03-02T05:32:02;23.30;;;10.93;;
28070;SDS011;15383;48.408;9.968;2024-03-02T05:34:27;18.80;;;10.48;;
28070;SDS011;15383;48.408;9.968;2024-03-02T05:36:53;19.75;;;10.18;;
28070;SDS011;15383;48.408;9.968;2024-03-02T05:39:18;18.67;;;9.80;;
28070;SDS011;15383;48.408;9.968;2024-03-02T05:41:44;21.25;;;10.70;;
28070;SDS011;15383;48.408;9.968;2024-03-02T05:44:09;24.17;;;11.75;;
28070;SDS011;15383;48.408;9.968;2024-03-02T05:46:35;22.92;;;11.88;;
28070;SDS011;15383;48.408;9.968;2024-03-02T05:49:00;20.05;;;11.45;;
28070;SDS011;15383;48.408;9.968;2024-03-02T05:51:26;19.38;;;10.45;;
28070;SDS011;15383;48.408;9.968;2024-03-02T05:53:51;21.17;;;11.27;;
28070;SDS011;15383;48.408;9.968;2024-03-02T05:56:17;19.63;;;10.20;;
28070;SDS011;15383;48.408;9.968;2024-03-02T05:58:43;15.05;;;9.48;;
28070;SDS011;15383;48.408;9.968;2024-03-02T06:01:22;17.48;;;10.27;;
28070;SDS011;15383;48.408;9.968;2024-03-02T06:03:53;21.20;;;10.85;;
28070;SDS011;15383;48.408;9.968;2024-03-02T06:06:22;18.95;;;10.10;;
28070;SDS011;15383;48.408;9.968;2024-03-02T06:08:48;18.23;;;10.80;;
28070;SDS011;15383;48.408;9.968;2024-03-02T06:11:13;18.40;;;9.85;;
28070;SDS011;15383;48.408;9.968;2024-03-02T06:13:39;20.90;;;10.82;;
28070;SDS011;15383;48.408;9.968;2024-03-02T06:16:04;22.58;;;10.65;;
28070;SDS011;15383;48.408;9.968;2024-03-02T06:18:30;18.98;;;10.95;;
28070;SDS011;15383;48.408;9.968;2024-03-02T06:20:56;21.77;;;11.07;;
28070;SDS011;15383;48.408;9.968;2024-03-02T06:23:21;24.33;;;10.68;;
28070;SDS011;15383;48.408;9.968;2024-03-02T06:25:47;22.70;;;10.85;;
28070;SDS011;15383;48.408;9.968;2024-03-02T06:28:12;24.30;;;11.13;;
28070;SDS011;15383;48.408;9.968;2024-03-02T06:30:40;20.67;;;10.55;;
28070;SDS011;15383;48.408;9.968;2024-03-02T06:33:07;22.85;;;10.63;;
28070;SDS011;15383;48.408;9.968;2024-03-02T06:35:32;24.05;;;11.13;;
28070;SDS011;15383;48.408;9.968;2024-03-02T06:37:58;23.08;;;10.88;;
28070;SDS011;15383;48.408;9.968;2024-03-02T06:40:23;19.60;;;11.02;;
28070;SDS011;15383;48.408;9.968;2024-03-02T06:42:49;21.48;;;10.70;;
28070;SDS011;15383;48.408;9.968;2024-03-02T06:45:14;20.30;;;9.95;;
28070;SDS011;15383;48.408;9.968;2024-03-02T06:47:40;24.75;;;11.98;;
28070;SDS011;15383;48.408;9.968;2024-03-02T06:50:05;28.90;;;12.73;;
28070;SDS011;15383;48.408;9.968;2024-03-02T06:52:32;23.10;;;11.60;;
28070;SDS011;15383;48.408;9.968;2024-03-02T06:54:57;27.30;;;12.70;;
28070;SDS011;15383;48.408;9.968;2024-03-02T06:57:23;24.73;;;11.27;;
28070;SDS011;15383;48.408;9.968;2024-03-02T06:59:49;23.75;;;11.90;;
28070;SDS011;15383;48.408;9.968;2024-03-02T07:02:16;23.77;;;11.85;;
28070;SDS011;15383;48.408;9.968;2024-03-02T07:04:42;24.25;;;10.93;;
28070;SDS011;15383;48.408;9.968;2024-03-02T07:07:07;23.02;;;11.13;;
28070;SDS011;15383;48.408;9.968;2024-03-02T07:09:33;26.80;;;11.57;;
28070;SDS011;15383;48.408;9.968;2024-03-02T07:11:58;25.20;;;11.75;;
28070;SDS011;15383;48.408;9.968;2024-03-02T07:14:24;26.67;;;11.82;;
28070;SDS011;15383;48.408;9.968;2024-03-02T07:17:09;23.35;;;11.15;;
28070;SDS011;15383;48.408;9.968;2024-03-02T07:19:35;23.50;;;11.25;;
28070;SDS011;15383;48.408;9.968;2024-03-02T07:22:01;24.13;;;11.65;;
28070;SDS011;15383;48.408;9.968;2024-03-02T07:24:30;27.58;;;12.35;;
28070;SDS011;15383;48.408;9.968;2024-03-02T07:26:56;29.80;;;12.68;;
28070;SDS011;15383;48.408;9.968;2024-03-02T07:29:21;25.63;;;11.60;;
28070;SDS011;15383;48.408;9.968;2024-03-02T07:31:47;27.40;;;11.75;;
28070;SDS011;15383;48.408;9.968;2024-03-02T07:34:13;25.15;;;11.23;;
28070;SDS011;15383;48.408;9.968;2024-03-02T07:36:38;27.70;;;12.35;;
28070;SDS011;15383;48.408;9.968;2024-03-02T07:39:04;22.63;;;11.02;;
28070;SDS011;15383;48.408;9.968;2024-03-02T07:41:29;27.92;;;11.60;;
28070;SDS011;15383;48.408;9.968;2024-03-02T07:43:56;22.08;;;10.63;;
28070;SDS011;15383;48.408;9.968;2024-03-02T07:46:21;24.13;;;12.30;;
28070;SDS011;15383;48.408;9.968;2024-03-02T07:48:47;28.92;;;11.57;;
28070;SDS011;15383;48.408;9.968;2024-03-02T07:51:13;25.30;;;11.85;;
28070;SDS011;15383;48.408;9.968;2024-03-02T07:53:39;28.98;;;11.63;;
28070;SDS011;15383;48.408;9.968;2024-03-02T07:56:04;25.73;;;10.85;;
28070;SDS011;15383;48.408;9.968;2024-03-02T07:58:31;22.42;;;10.98;;
28070;SDS011;15383;48.408;9.968;2024-03-02T08:00:58;23.85;;;10.57;;
28070;SDS011;15383;48.408;9.968;2024-03-02T08:03:26;25.45;;;11.48;;
28070;SDS011;15383;48.408;9.968;2024-03-02T08:05:52;27.60;;;11.15;;
28070;SDS011;15383;48.408;9.968;2024-03-02T08:08:17;25.45;;;11.07;;
28070;SDS011;15383;48.408;9.968;2024-03-02T08:10:43;25.48;;;11.15;;
28070;SDS011;15383;48.408;9.968;2024-03-02T08:13:09;25.67;;;11.18;;
28070;SDS011;15383;48.408;9.968;2024-03-02T08:15:34;28.45;;;12.10;;
28070;SDS011;15383;48.408;9.968;2024-03-02T08:18:00;21.85;;;10.98;;
28070;SDS011;15383;48.408;9.968;2024-03-02T08:20:26;22.98;;;11.02;;
28070;SDS011;15383;48.408;9.968;2024-03-02T08:22:51;23.30;;;11.30;;
28070;SDS011;15383;48.408;9.968;2024-03-02T08:25:19;26.90;;;11.52;;
28070;SDS011;15383;48.408;9.968;2024-03-02T08:27:45;22.42;;;10.75;;
28070;SDS011;15383;48.408;9.968;2024-03-02T08:30:11;23.30;;;11.88;;
28070;SDS011;15383;48.408;9.968;2024-03-02T08:32:37;24.40;;;11.13;;
28070;SDS011;15383;48.408;9.968;2024-03-02T08:35:03;24.10;;;10.77;;
28070;SDS011;15383;48.408;9.968;2024-03-02T08:37:30;19.95;;;10.43;;
28070;SDS011;15383;48.408;9.968;2024-03-02T08:39:55;22.45;;;11.15;;
28070;SDS011;15383;48.408;9.968;2024-03-02T08:42:21;26.50;;;11.73;;
28070;SDS011;15383;48.408;9.968;2024-03-02T08:44:47;23.90;;;12.05;;
28070;SDS011;15383;48.408;9.968;2024-03-02T08:47:13;24.90;;;12.07;;
28070;SDS011;15383;48.408;9.968;2024-03-02T08:49:38;22.00;;;11.38;;
28070;SDS011;15383;48.408;9.968;2024-03-02T08:52:04;24.40;;;10.95;;
28070;SDS011;15383;48.408;9.968;2024-03-02T08:54:30;23.77;;;11.20;;
28070;SDS011;15383;48.408;9.968;2024-03-02T08:56:56;22.00;;;10.80;;
28070;SDS011;15383;48.408;9.968;2024-03-02T08:59:22;27.05;;;12.60;;
28070;SDS011;15383;48.408;9.968;2024-03-02T09:01:47;23.92;;;10.70;;
28070;SDS011;15383;48.408;9.968;2024-03-02T09:04:13;30.00;;;12.23;;
28070;SDS011;15383;48.408;9.968;2024-03-02T09:06:38;23.95;;;11.32;;
28070;SDS011;15383;48.408;9.968;2024-03-02T09:09:04;21.23;;;10.63;;
28070;SDS011;15383;48.408;9.968;2024-03-02T09:11:29;25.17;;;11.35;;
28070;SDS011;15383;48.408;9.968;2024-03-02T09:13:55;22.80;;;10.65;;
28070;SDS011;15383;48.408;9.968;2024-03-02T09:16:22;28.13;;;11.52;;
28070;SDS011;15383;48.408;9.968;2024-03-02T09:18:49;29.00;;;11.45;;
28070;SDS011;15383;48.408;9.968;2024-03-02T09:21:14;23.15;;;11.52;;
28070;SDS011;15383;48.408;9.968;2024-03-02T09:23:40;28.17;;;11.75;;
28070;SDS011;15383;48.408;9.968;2024-03-02T09:26:05;31.80;;;12.30;;
28070;SDS011;15383;48.408;9.968;2024-03-02T09:28:31;25.83;;;12.52;;
28070;SDS011;15383;48.408;9.968;2024-03-02T09:30:56;28.45;;;12.00;;
28070;SDS011;15383;48.408;9.968;2024-03-02T09:33:22;27.58;;;12.20;;
28070;SDS011;15383;48.408;9.968;2024-03-02T09:35:48;28.60;;;12.27;;
28070;SDS011;15383;48.408;9.968;2024-03-02T09:38:13;24.60;;;10.30;;
28070;SDS011;15383;48.408;9.968;2024-03-02T09:40:40;24.10;;;10.73;;
28070;SDS011;15383;48.408;9.968;2024-03-02T09:43:07;28.55;;;11.65;;
28070;SDS011;15383;48.408;9.968;2024-03-02T09:45:32;22.65;;;10.95;;
28070;SDS011;15383;48.408;9.968;2024-03-02T09:47:58;23.17;;;10.82;;
28070;SDS011;15383;48.408;9.968;2024-03-02T09:50:24;24.42;;;10.85;;
28070;SDS011;15383;48.408;9.968;2024-03-02T09:52:50;23.23;;;10.88;;
28070;SDS011;15383;48.408;9.968;2024-03-02T09:55:17;28.13;;;10.88;;
28070;SDS011;15383;48.408;9.968;2024-03-02T09:57:44;26.15;;;10.95;;
28070;SDS011;15383;48.408;9.968;2024-03-02T10:00:11;30.95;;;13.27;;
28070;SDS011;15383;48.408;9.968;2024-03-02T10:02:39;30.95;;;12.40;;
28070;SDS011;15383;48.408;9.968;2024-03-02T10:05:06;35.75;;;14.18;;
28070;SDS011;15383;48.408;9.968;2024-03-02T10:07:33;33.25;;;12.65;;
28070;SDS011;15383;48.408;9.968;2024-03-02T10:09:58;26.30;;;13.38;;
28070;SDS011;15383;48.408;9.968;2024-03-02T10:12:40;31.23;;;13.38;;
28070;SDS011;15383;48.408;9.968;2024-03-02T10:15:05;27.48;;;12.95;;
28070;SDS011;15383;48.408;9.968;2024-03-02T10:17:32;31.52;;;14.48;;
28070;SDS011;15383;48.408;9.968;2024-03-02T10:19:58;28.83;;;12.70;;
28070;SDS011;15383;48.408;9.968;2024-03-02T10:22:23;30.35;;;12.75;;
28070;SDS011;15383;48.408;9.968;2024-03-02T10:24:49;30.38;;;12.90;;
28070;SDS011;15383;48.408;9.968;2024-03-02T10:27:16;31.05;;;12.32;;
28070;SDS011;15383;48.408;9.968;2024-03-02T10:29:42;24.05;;;12.07;;
28070;SDS011;15383;48.408;9.968;2024-03-02T10:32:11;27.02;;;12.93;;
28070;SDS011;15383;48.408;9.968;2024-03-02T10:34:37;30.67;;;13.20;;
28070;SDS011;15383;48.408;9.968;2024-03-02T10:37:06;26.10;;;12.52;;
28070;SDS011;15383;48.408;9.968;2024-03-02T10:39:34;28.27;;;11.82;;
28070;SDS011;15383;48.408;9.968;2024-03-02T10:42:00;24.67;;;11.55;;
28070;SDS011;15383;48.408;9.968;2024-03-02T10:44:28;24.42;;;12.20;;
28070;SDS011;15383;48.408;9.968;2024-03-02T10:46:55;23.17;;;11.48;;
28070;SDS011;15383;48.408;9.968;2024-03-02T10:49:21;26.65;;;12.55;;
28070;SDS011;15383;48.408;9.968;2024-03-02T10:51:48;22.55;;;11.00;;
28070;SDS011;15383;48.408;9.968;2024-03-02T10:54:13;22.48;;;11.15;;
28070;SDS011;15383;48.408;9.968;2024-03-02T10:56:40;22.48;;;11.68;;
28070;SDS011;15383;48.408;9.968;2024-03-02T11:01:50;22.10;;;11.02;;
28070;SDS011;15383;48.408;9.968;2024-03-02T11:04:20;20.17;;;11.38;;
28070;SDS011;15383;48.408;9.968;2024-03-02T11:06:51;20.05;;;10.98;;
28070;SDS011;15383;48.408;9.968;2024-03-02T11:09:23;24.10;;;11.30;;
28070;SDS011;15383;48.408;9.968;2024-03-02T11:14:53;20.25;;;10.77;;
28070;SDS011;15383;48.408;9.968;2024-03-02T11:17:21;21.55;;;11.77;;
28070;SDS011;15383;48.408;9.968;2024-03-02T11:19:48;23.05;;;10.82;;
28070;SDS011;15383;48.408;9.968;2024-03-02T11:22:15;17.08;;;10.00;;
28070;SDS011;15383;48.408;9.968;2024-03-02T11:24:51;20.85;;;11.07;;
28070;SDS011;15383;48.408;9.968;2024-03-02T11:33:02;22.00;;;10.68;;
28070;SDS011;15383;48.408;9.968;2024-03-02T11:38:02;22.02;;;11.45;;
28070;SDS011;15383;48.408;9.968;2024-03-02T11:40:28;20.70;;;10.38;;
28070;SDS011;15383;48.408;9.968;2024-03-02T11:42:55;22.77;;;10.63;;
28070;SDS011;15383;48.408;9.968;2024-03-02T11:45:24;17.45;;;9.35;;
28070;SDS011;15383;48.408;9.968;2024-03-02T11:47:54;16.63;;;9.27;;
28070;SDS011;15383;48.408;9.968;2024-03-02T11:50:29;13.57;;;7.60;;
28070;SDS011;15383;48.408;9.968;2024-03-02T11:52:56;15.25;;;8.35;;
28070;SDS011;15383;48.408;9.968;2024-03-02T11:55:23;13.00;;;7.82;;
28070;SDS011;15383;48.408;9.968;2024-03-02T11:57:52;13.10;;;6.93;;
28070;SDS011;15383;48.408;9.968;2024-03-02T12:00:21;12.55;;;6.72;;
28070;SDS011;15383;48.408;9.968;2024-03-02T12:02:47;12.40;;;7.00;;
28070;SDS011;15383;48.408;9.968;2024-03-02T12:05:29;13.32;;;7.15;;
28070;SDS011;15383;48.408;9.968;2024-03-02T12:08:01;12.13;;;6.70;;
28070;SDS011;15383;48.408;9.968;2024-03-02T12:10:28;12.93;;;7.28;;
28070;SDS011;15383;48.408;9.968;2024-03-02T12:12:57;10.65;;;6.10;;
28070;SDS011;15383;48.408;9.968;2024-03-02T12:15:24;9.93;;;5.85;;
28070;SDS011;15383;48.408;9.968;2024-03-02T12:17:54;10.57;;;6.38;;
28070;SDS011;15383;48.408;9.968;2024-03-02T12:20:21;12.65;;;6.90;;
28070;SDS011;15383;48.408;9.968;2024-03-02T12:22:48;10.20;;;6.22;;
28070;SDS011;15383;48.408;9.968;2024-03-02T12:25:18;10.18;;;6.60;;
28070;SDS011;15383;48.408;9.968;2024-03-02T12:27:47;7.97;;;5.15;;
28070;SDS011;15383;48.408;9.968;2024-03-02T12:30:18;10.68;;;6.35;;
28070;SDS011;15383;48.408;9.968;2024-03-02T12:32:45;13.38;;;7.63;;
28070;SDS011;15383;48.408;9.968;2024-03-02T12:35:11;12.07;;;6.95;;
28070;SDS011;15383;48.408;9.968;2024-03-02T12:37:58;14.88;;;7.13;;
28070;SDS011;15383;48.408;9.968;2024-03-02T12:40:23;13.52;;;7.70;;
28070;SDS011;15383;48.408;9.968;2024-03-02T12:42:49;16.05;;;8.00;;
28070;SDS011;15383;48.408;9.968;2024-03-02T12:45:15;13.00;;;7.80;;
28070;SDS011;15383;48.408;9.968;2024-03-02T12:47:48;16.08;;;8.35;;
28070;SDS011;15383;48.408;9.968;2024-03-02T12:50:15;16.95;;;8.88;;
28070;SDS011;15383;48.408;9.968;2024-03-02T12:52:41;15.70;;;8.75;;
28070;SDS011;15383;48.408;9.968;2024-03-02T12:55:06;15.32;;;9.18;;
28070;SDS011;15383;48.408;9.968;2024-03-02T12:57:33;17.17;;;9.13;;
28070;SDS011;15383;48.408;9.968;2024-03-02T12:59:59;16.45;;;8.88;;
28070;SDS011;15383;48.408;9.968;2024-03-02T13:02:28;19.42;;;9.35;;
28070;SDS011;15383;48.408;9.968;2024-03-02T13:04:56;18.17;;;9.25;;
28070;SDS011;15383;48.408;9.968;2024-03-02T13:07:23;18.92;;;9.35;;
28070;SDS011;15383;48.408;9.968;2024-03-02T13:09:50;18.35;;;9.45;;
28070;SDS011;15383;48.408;9.968;2024-03-02T13:12:16;15.95;;;9.07;;
28070;SDS011;15383;48.408;9.968;2024-03-02T13:14:43;15.45;;;8.57;;
28070;SDS011;15383;48.408;9.968;2024-03-02T13:17:09;16.27;;;9.10;;
28070;SDS011;15383;48.408;9.968;2024-03-02T13:19:35;15.05;;;8.73;;
28070;SDS011;15383;48.408;9.968;2024-03-02T13:22:00;18.13;;;9.68;;
28070;SDS011;15383;48.408;9.968;2024-03-02T13:24:28;17.05;;;9.23;;
28070;SDS011;15383;48.408;9.968;2024-03-02T13:26:54;15.18;;;8.68;;
28070;SDS011;15383;48.408;9.968;2024-03-02T13:29:22;17.17;;;9.85;;
28070;SDS011;15383;48.408;9.968;2024-03-02T13:31:48;20.92;;;9.93;;
28070;SDS011;15383;48.408;9.968;2024-03-02T13:34:14;16.20;;;9.15;;
28070;SDS011;15383;48.408;9.968;2024-03-02T13:36:40;15.98;;;9.07;;
28070;SDS011;15383;48.408;9.968;2024-03-02T13:39:06;15.77;;;8.48;;
28070;SDS011;15383;48.408;9.968;2024-03-02T13:41:34;14.75;;;8.98;;
28070;SDS011;15383;48.408;9.968;2024-03-02T13:44:00;16.13;;;8.70;;
28070;SDS011;15383;48.408;9.968;2024-03-02T13:46:26;14.55;;;7.80;;
28070;SDS011;15383;48.408;9.968;2024-03-02T13:48:52;11.73;;;7.53;;
28070;SDS011;15383;48.408;9.968;2024-03-02T13:51:19;13.05;;;7.72;;
28070;SDS011;15383;48.408;9.968;2024-03-02T13:53:44;13.48;;;8.13;;
28070;SDS011;15383;48.408;9.968;2024-03-02T13:56:10;13.63;;;7.47;;
28070;SDS011;15383;48.408;9.968;2024-03-02T13:58:36;11.60;;;7.00;;
28070;SDS011;15383;48.408;9.968;2024-03-02T14:01:02;12.20;;;7.20;;
28070;SDS011;15383;48.408;9.968;2024-03-02T14:03:29;12.15;;;6.03;;
28070;SDS011;15383;48.408;9.968;2024-03-02T14:05:55;12.65;;;7.38;;
28070;SDS011;15383;48.408;9.968;2024-03-02T14:08:21;9.77;;;6.60;;
28070;SDS011;15383;48.408;9.968;2024-03-02T14:10:47;12.20;;;6.32;;
28070;SDS011;15383;48.408;9.968;2024-03-02T14:13:12;9.70;;;6.40;;
28070;SDS011;15383;48.408;9.968;2024-03-02T14:15:38;13.05;;;6.22;;
28070;SDS011;15383;48.408;9.968;2024-03-02T14:18:04;11.00;;;5.75;;
28070;SDS011;15383;48.408;9.968;2024-03-02T14:20:30;12.10;;;6.10;;
28070;SDS011;15383;48.408;9.968;2024-03-02T14:22:57;8.45;;;5.80;;
28070;SDS011;15383;48.408;9.968;2024-03-02T14:25:24;9.80;;;5.50;;
28070;SDS011;15383;48.408;9.968;2024-03-02T14:27:50;9.15;;;5.72;;
28070;SDS011;15383;48.408;9.968;2024-03-02T14:30:16;9.27;;;5.60;;
28070;SDS011;15383;48.408;9.968;2024-03-02T14:32:41;11.57;;;6.32;;
28070;SDS011;15383;48.408;9.968;2024-03-02T14:35:07;9.77;;;6.05;;
28070;SDS011;15383;48.408;9.968;2024-03-02T14:37:35;8.45;;;5.47;;
28070;SDS011;15383;48.408;9.968;2024-03-02T14:40:01;12.25;;;5.68;;